Time;durP1;ratioP1;P1;durP2;ratioP2;P2;SDS_P1;SDS_P2;PMS_P1;PMS_P2;Temp;Humidity;BMP_temperature;BMP_pressure;BME280_temperature;BME280_humidity;BME280_pressure;Samples;Min_cycle;Max_cycle;Signal;HPM_P1;HPM_P2
2024/01/01 00:01:25;;;;;;;52.72;32.53;;;;;;;2.11;78.28;94786.41;5009040;28;20103;-69
2024/01/01 00:03:51;;;;;;;75.57;42.97;;;;;;;1.90;78.37;94770.38;4967746;28;20393;-69
2024/01/01 00:06:16;;;;;;;89.00;50.30;;;;;;;1.68;79.71;94799.59;4994100;28;20092;-69
2024/01/01 00:08:42;;;;;;;58.80;35.13;;;;;;;1.91;78.96;94789.97;4990967;28;20463;-69
2024/01/01 00:11:07;;;;;;;55.05;34.85;;;;;;;1.85;79.79;94793.66;5009643;28;20045;-69
2024/01/01 00:13:32;;;;;;;56.72;36.72;;;;;;;2.00;78.57;94776.69;5007688;28;20057;-69
2024/01/01 00:15:58;;;;;;;57.28;37.75;;;;;;;2.12;77.60;94783.78;5010216;28;20026;-69
2024/01/01 00:18:23;;;;;;;51.88;32.20;;;;;;;2.13;77.87;94779.47;4990589;28;20041;-69
2024/01/01 00:20:49;;;;;;;51.25;31.70;;;;;;;2.17;77.70;94776.69;5010401;28;20041;-69
2024/01/01 00:23:14;;;;;;;37.72;24.73;;;;;;;2.02;77.96;94787.69;4991089;28;20068;-69
2024/01/01 00:25:39;;;;;;;48.80;31.25;;;;;;;1.93;78.57;94798.41;5010023;28;20033;-69
2024/01/01 00:28:06;;;;;;;39.08;24.15;;;;;;;2.08;77.81;94792.50;5009488;28;20084;-69
2024/01/01 00:30:31;;;;;;;39.90;25.30;;;;;;;1.96;78.03;94793.94;5009808;28;20502;-69
2024/01/01 00:32:56;;;;;;;35.60;22.75;;;;;;;2.07;78.17;94795.16;5007473;28;20057;-69
2024/01/01 00:35:22;;;;;;;29.02;20.05;;;;;;;1.96;78.46;94803.38;4992284;28;20034;-69
2024/01/01 00:37:47;;;;;;;36.20;21.17;;;;;;;1.75;78.74;94795.81;5012795;28;20124;-69
2024/01/01 00:40:14;;;;;;;39.65;23.02;;;;;;;1.64;79.52;94803.19;4995718;28;20033;-69
2024/01/01 00:42:42;;;;;;;28.48;17.20;;;;;;;1.60;80.46;94800.88;4995958;28;20030;-69
2024/01/01 00:45:08;;;;;;;27.05;16.70;;;;;;;1.63;80.43;94801.53;5013308;28;20030;-69
2024/01/01 00:47:34;;;;;;;30.30;18.58;;;;;;;1.57;79.30;94804.41;4994840;28;20029;-69
2024/01/01 00:50:00;;;;;;;42.67;26.45;;;;;;;1.42;80.88;94797.44;4995493;28;20029;-69
2024/01/01 00:52:25;;;;;;;31.50;16.00;;;;;;;1.51;82.03;94808.09;5012985;28;20040;-69
2024/01/01 00:54:51;;;;;;;27.52;15.52;;;;;;;1.24;83.26;94764.13;4963344;28;20420;-69
2024/01/01 00:57:16;;;;;;;22.48;13.88;;;;;;;1.65;83.72;94797.19;4994815;28;20034;-69
2024/01/01 00:59:42;;;;;;;26.63;15.43;;;;;;;1.75;83.87;94795.00;4995212;28;20026;-69
2024/01/01 01:02:07;;;;;;;24.15;14.82;;;;;;;1.89;83.77;94796.88;4976657;28;20472;-69
2024/01/01 01:04:33;;;;;;;25.55;15.68;;;;;;;1.93;83.50;94798.41;4995078;28;20072;-69
2024/01/01 01:06:58;;;;;;;32.10;17.35;;;;;;;2.08;82.90;94784.00;5012829;28;20076;-69
2024/01/01 01:09:23;;;;;;;24.77;16.15;;;;;;;2.10;83.05;94790.72;5012524;28;20033;-69
2024/01/01 01:11:49;;;;;;;29.35;16.73;;;;;;;2.05;82.81;94776.47;5012084;28;20518;-69
2024/01/01 01:14:14;;;;;;;28.95;17.30;;;;;;;2.15;82.38;94782.78;4984638;28;20046;-69
2024/01/01 01:16:40;;;;;;;26.63;17.13;;;;;;;2.32;81.73;94785.31;4994389;28;20512;-69
2024/01/01 01:19:05;;;;;;;30.45;17.95;;;;;;;2.22;81.81;94771.31;5011010;28;20045;-69
2024/01/01 01:21:31;;;;;;;27.27;16.48;;;;;;;2.32;81.43;94761.44;5012331;28;20040;-69
2024/01/01 01:23:58;;;;;;;29.45;18.25;;;;;;;2.29;81.51;94754.72;5008074;28;20022;-69
2024/01/01 01:26:23;;;;;;;29.15;17.63;;;;;;;2.27;81.44;94764.22;5003711;28;20026;-69
2024/01/01 01:28:49;;;;;;;28.42;17.00;;;;;;;2.32;81.63;94758.88;4993742;28;20107;-69
2024/01/01 01:31:14;;;;;;;25.00;15.73;;;;;;;2.44;80.77;94738.53;5009990;28;20424;-69
2024/01/01 01:33:40;;;;;;;29.52;16.77;;;;;;;2.54;80.89;94761.16;5011813;28;20014;-69
2024/01/01 01:36:05;;;;;;;28.10;15.98;;;;;;;2.60;80.87;94759.09;5012591;28;20087;-69
2024/01/01 01:38:34;;;;;;;27.00;16.52;;;;;;;2.59;80.76;94759.16;5012097;28;20034;-69
2024/01/01 01:40:59;;;;;;;30.55;19.52;;;;;;;2.54;80.16;94758.59;5010930;28;20483;-69
2024/01/01 01:43:25;;;;;;;29.65;17.88;;;;;;;2.51;79.03;94727.94;4994541;28;20034;-70
2024/01/01 01:45:51;;;;;;;29.73;18.38;;;;;;;2.47;79.29;94750.38;5012358;28;20030;-69
2024/01/01 01:48:16;;;;;;;27.73;16.77;;;;;;;2.36;80.38;94755.22;4994549;28;20034;-69
2024/01/01 01:50:44;;;;;;;27.27;17.30;;;;;;;2.30;80.68;94746.13;4993731;28;20030;-69
2024/01/01 01:53:09;;;;;;;24.75;15.40;;;;;;;2.24;80.70;94719.06;5010741;28;20061;-69
2024/01/01 01:55:34;;;;;;;29.67;18.48;;;;;;;2.47;80.00;94742.66;4994545;28;20420;-69
2024/01/01 01:58:00;;;;;;;29.65;18.00;;;;;;;2.45;79.53;94740.19;5011467;28;20033;-69
2024/01/01 02:00:25;;;;;;;44.47;25.35;;;;;;;2.34;79.67;94742.50;5010775;28;20235;-69
2024/01/01 02:02:51;;;;;;;50.53;28.38;;;;;;;1.71;80.84;94743.09;5011531;28;20116;-69
2024/01/01 02:05:16;;;;;;;61.15;36.58;;;;;;;1.58;81.06;94748.91;5010666;28;20045;-69
2024/01/01 02:07:43;;;;;;;62.33;35.33;;;;;;;1.43;81.16;94745.34;5011479;28;20160;-69
2024/01/01 02:10:09;;;;;;;57.28;35.90;;;;;;;1.30;80.96;94733.13;5009737;28;20033;-69
2024/01/01 02:12:34;;;;;;;58.22;33.75;;;;;;;1.68;80.06;94758.63;5010028;28;20520;-69
2024/01/01 02:15:00;;;;;;;63.42;36.65;;;;;;;1.71;79.79;94766.16;4994056;28;20052;-69
2024/01/01 02:17:25;;;;;;;59.72;34.42;;;;;;;1.84;78.78;94768.09;5011282;28;20030;-69
2024/01/01 02:19:51;;;;;;;59.58;34.05;;;;;;;1.70;79.01;94759.38;5011397;28;20045;-69
2024/01/01 02:22:16;;;;;;;60.42;34.80;;;;;;;1.74;78.14;94758.31;5011070;28;20046;-69
2024/01/01 02:24:41;;;;;;;63.67;34.53;;;;;;;1.42;78.91;94765.00;5010080;28;20022;-69
2024/01/01 02:27:07;;;;;;;51.83;31.67;;;;;;;1.62;79.02;94764.03;4993754;28;20038;-69
2024/01/01 02:29:32;;;;;;;52.72;31.35;;;;;;;1.43;79.16;94764.09;4989756;28;20030;-69
2024/01/01 02:31:58;;;;;;;46.13;27.10;;;;;;;1.66;78.68;94775.78;4991767;28;20444;-69
2024/01/01 02:34:24;;;;;;;55.67;33.35;;;;;;;1.46;78.63;94766.50;5009003;28;20022;-69
2024/01/01 02:36:49;;;;;;;57.72;34.95;;;;;;;1.41;78.83;94786.38;5010063;28;20030;-69
2024/01/01 02:39:15;;;;;;;56.13;32.15;;;;;;;1.59;78.33;94784.69;4993458;28;20096;-69
2024/01/01 02:41:40;;;;;;;59.47;33.28;;;;;;;1.52;78.55;94785.88;5011045;28;20030;-69
2024/01/01 02:44:05;;;;;;;58.30;35.22;;;;;;;1.46;79.32;94779.31;5008463;28;20030;-69
2024/01/01 02:46:31;;;;;;;58.30;35.03;;;;;;;1.44;78.67;94758.06;5009963;28;20479;-69
2024/01/01 02:48:56;;;;;;;56.33;34.95;;;;;;;1.63;77.39;94782.78;5010932;28;20232;-69
2024/01/01 02:51:22;;;;;;;66.90;39.03;;;;;;;1.53;77.49;94784.94;5010715;28;20057;-69
2024/01/01 02:53:47;;;;;;;66.40;38.63;;;;;;;1.40;78.49;94783.91;5009306;28;20404;-70
2024/01/01 02:56:19;;;;;;;79.45;43.53;;;;;;;1.13;79.57;94774.03;5009135;28;20504;-69
2024/01/01 02:58:45;;;;;;;88.93;45.88;;;;;;;1.24;79.57;94760.75;5010792;28;20072;-69
2024/01/01 03:01:10;;;;;;;100.00;50.00;;;;;;;0.99;80.40;94764.44;4993596;28;20508;-69
2024/01/01 03:03:36;;;;;;;102.28;52.35;;;;;;;0.86;81.02;94764.22;5009016;28;20030;-69
2024/01/01 03:06:01;;;;;;;91.82;48.17;;;;;;;0.75;80.48;94735.69;5009143;28;20033;-70
2024/01/01 03:08:27;;;;;;;93.20;48.58;;;;;;;0.73;80.34;94732.41;5010708;28;20508;-69
2024/01/01 03:10:53;;;;;;;82.60;45.42;;;;;;;0.67;81.24;94735.25;5009881;28;20033;-70
2024/01/01 03:13:18;;;;;;;61.28;31.30;;;;;;;0.69;81.32;94736.00;5009473;28;20420;-69
2024/01/01 03:15:44;;;;;;;44.10;24.63;;;;;;;0.91;82.69;94732.47;4992401;28;20026;-69
2024/01/01 03:18:11;;;;;;;32.40;17.50;;;;;;;0.92;82.19;94732.41;5008755;28;20038;-69
2024/01/01 03:20:37;;;;;;;45.67;25.30;;;;;;;0.77;81.41;94733.09;4991390;28;20037;-69
2024/01/01 03:23:03;;;;;;;48.58;27.80;;;;;;;0.68;81.69;94716.44;5010701;28;20167;-69
2024/01/01 03:25:28;;;;;;;37.42;22.10;;;;;;;0.67;81.83;94709.69;4992346;28;20038;-69
2024/01/01 03:27:55;;;;;;;27.17;17.00;;;;;;;0.58;82.24;94708.34;4959755;28;20041;-69
2024/01/01 03:30:21;;;;;;;28.10;17.08;;;;;;;0.76;82.74;94718.66;4992724;28;20054;-69
2024/01/01 03:32:47;;;;;;;48.72;27.65;;;;;;;0.76;82.14;94710.97;5011048;28;20551;-69
2024/01/01 03:35:12;;;;;;;27.42;17.38;;;;;;;0.67;82.47;94712.25;4976322;28;20033;-69
2024/01/01 03:37:38;;;;;;;28.48;16.40;;;;;;;0.71;83.20;94700.13;5009232;28;20030;-69
2024/01/01 03:40:03;;;;;;;33.92;19.88;;;;;;;0.97;85.16;94699.72;4973364;28;20492;-69
2024/01/01 03:42:29;;;;;;;36.10;22.02;;;;;;;0.91;85.12;94714.56;4972912;28;20042;-69
2024/01/01 03:44:54;;;;;;;42.78;24.80;;;;;;;1.10;84.64;94712.78;4994959;28;20381;-69
2024/01/01 03:47:20;;;;;;;29.05;18.73;;;;;;;1.01;84.47;94708.94;5010596;28;20026;-69
2024/01/01 03:49:45;;;;;;;41.80;24.20;;;;;;;0.87;84.50;94713.88;5009658;28;20538;-69
2024/01/01 03:52:11;;;;;;;32.88;18.98;;;;;;;1.02;84.41;94710.56;4993102;28;20037;-69
2024/01/01 03:54:36;;;;;;;27.50;16.90;;;;;;;1.01;82.16;94710.66;4995085;28;20034;-69
2024/01/01 03:57:01;;;;;;;32.00;16.67;;;;;;;0.83;82.70;94702.94;5013928;28;20416;-69
2024/01/01 03:59:27;;;;;;;25.98;15.25;;;;;;;0.81;83.30;94689.41;4996539;28;20608;-69
2024/01/01 04:01:52;;;;;;;30.27;17.08;;;;;;;0.98;81.87;94701.41;5013866;28;20041;-69
2024/01/01 04:04:17;;;;;;;25.65;16.30;;;;;;;0.87;82.41;94701.91;5013679;28;20034;-69
2024/01/01 04:06:43;;;;;;;23.98;14.68;;;;;;;0.87;82.40;94703.63;5013801;28;20084;-69
2024/01/01 04:09:08;;;;;;;26.45;15.93;;;;;;;0.76;80.70;94700.75;5013369;28;20104;-69
2024/01/01 04:11:34;;;;;;;24.63;14.60;;;;;;;0.63;81.61;94700.47;4996110;28;20508;-69
2024/01/01 04:14:00;;;;;;;25.52;14.38;;;;;;;0.62;81.80;94702.22;5000059;28;20045;-69
2024/01/01 04:16:25;;;;;;;22.50;13.40;;;;;;;0.75;82.03;94705.00;5012430;28;20069;-69
2024/01/01 04:18:51;;;;;;;22.58;13.63;;;;;;;0.64;82.01;94704.69;5003028;28;20035;-69
2024/01/01 04:21:16;;;;;;;21.55;13.27;;;;;;;0.43;83.00;94694.53;4978840;28;20057;-69
2024/01/01 04:23:42;;;;;;;22.15;14.57;;;;;;;0.48;84.07;94683.31;4994811;28;20034;-69
2024/01/01 04:26:07;;;;;;;24.08;13.73;;;;;;;0.50;84.72;94668.69;5012188;28;20037;-69
2024/01/01 04:28:33;;;;;;;26.08;15.30;;;;;;;0.68;85.01;94688.31;5013502;28;20385;-69
2024/01/01 04:30:58;;;;;;;25.23;14.93;;;;;;;0.89;84.89;94697.56;5012334;28;20034;-69
2024/01/01 04:33:23;;;;;;;23.25;14.43;;;;;;;0.99;84.37;94692.00;5011717;28;20095;-69
2024/01/01 04:35:49;;;;;;;23.45;14.07;;;;;;;1.04;84.73;94705.41;5011713;28;20037;-69
2024/01/01 04:38:14;;;;;;;26.85;16.38;;;;;;;1.06;83.89;94704.44;5011785;28;20511;-69
2024/01/01 04:40:40;;;;;;;27.10;15.32;;;;;;;1.07;84.32;94700.97;5012230;28;20195;-69
2024/01/01 04:43:05;;;;;;;27.00;16.08;;;;;;;1.12;84.22;94700.75;5013081;28;20538;-69
2024/01/01 04:45:36;;;;;;;22.30;13.18;;;;;;;1.36;83.09;94703.84;5009400;28;20030;-69
2024/01/01 04:48:02;;;;;;;24.93;14.27;;;;;;;1.33;83.34;94696.31;4989219;28;20488;-69
2024/01/01 04:50:28;;;;;;;23.35;14.13;;;;;;;1.31;83.19;94696.41;5012030;28;20288;-69
2024/01/01 04:52:53;;;;;;;23.88;13.60;;;;;;;1.25;83.08;94711.22;5011958;28;20037;-69
2024/01/01 04:55:19;;;;;;;24.25;14.70;;;;;;;1.21;83.31;94702.03;5012998;28;20022;-69
2024/01/01 04:57:45;;;;;;;26.05;14.38;;;;;;;1.27;82.59;94691.50;5011774;28;20471;-70
2024/01/01 05:00:11;;;;;;;46.92;25.67;;;;;;;1.28;82.54;94699.13;5013004;28;20030;-69
2024/01/01 05:02:36;;;;;;;28.67;17.20;;;;;;;1.16;83.38;94702.25;5012593;28;20061;-69
2024/01/01 05:05:04;;;;;;;26.17;15.40;;;;;;;1.30;83.00;94707.53;5011370;28;20424;-69
2024/01/01 05:07:29;;;;;;;24.45;15.02;;;;;;;1.19;83.75;94698.72;5012338;28;20033;-69
2024/01/01 05:09:58;;;;;;;24.33;13.75;;;;;;;1.21;83.74;94692.63;4995224;28;20034;-69
2024/01/01 05:12:23;;;;;;;23.83;15.07;;;;;;;1.35;83.31;94697.09;5011403;28;20022;-69
2024/01/01 05:14:48;;;;;;;21.77;13.45;;;;;;;1.37;83.10;94684.22;5011364;28;20120;-69
2024/01/01 05:17:14;;;;;;;22.65;13.50;;;;;;;1.49;82.50;94686.16;5010828;28;20029;-69
2024/01/01 05:19:39;;;;;;;23.60;13.60;;;;;;;1.50;81.89;94685.25;4978547;28;20034;-70
2024/01/01 05:22:05;;;;;;;26.77;15.93;;;;;;;1.52;80.77;94688.56;5012161;28;20037;-69
2024/01/01 05:24:30;;;;;;;30.90;19.35;;;;;;;1.31;80.91;94698.97;5010799;28;20033;-69
2024/01/01 05:26:56;;;;;;;37.05;24.20;;;;;;;1.36;81.14;94693.59;5012021;28;20026;-69
2024/01/01 05:29:21;;;;;;;58.47;38.42;;;;;;;0.86;82.38;94689.19;5010857;28;20029;-69
2024/01/01 05:31:47;;;;;;;56.13;33.03;;;;;;;0.65;82.73;94678.22;5011215;28;20029;-69
2024/01/01 05:34:12;;;;;;;41.03;25.92;;;;;;;0.57;83.19;94653.00;5011759;28;20030;-69
2024/01/01 05:36:37;;;;;;;22.08;13.77;;;;;;;0.96;82.27;94687.03;5012288;28;20038;-69
2024/01/01 05:39:03;;;;;;;21.98;13.57;;;;;;;0.95;81.95;94693.88;5010573;28;20026;-69
2024/01/01 05:41:29;;;;;;;20.98;13.07;;;;;;;0.66;82.00;94673.03;5011990;28;20037;-69
2024/01/01 05:43:54;;;;;;;19.08;12.20;;;;;;;0.49;82.82;94682.38;5011875;28;20029;-69
2024/01/01 05:46:20;;;;;;;20.80;12.05;;;;;;;0.75;82.04;94681.19;5010832;28;20026;-69
2024/01/01 05:48:45;;;;;;;21.33;12.60;;;;;;;0.80;81.51;94682.63;5011453;28;20022;-70
2024/01/01 05:51:11;;;;;;;19.60;12.15;;;;;;;0.80;81.65;94677.50;5012540;28;20410;-69
2024/01/01 05:53:36;;;;;;;17.40;11.13;;;;;;;0.84;81.12;94684.16;5011951;28;20424;-69
2024/01/01 05:56:03;;;;;;;18.60;11.65;;;;;;;0.88;80.01;94685.66;5010337;28;20034;-69
2024/01/01 05:58:28;;;;;;;14.63;9.52;;;;;;;0.74;79.96;94682.09;5010637;28;20038;-69
2024/01/01 06:00:54;;;;;;;17.73;10.63;;;;;;;0.56;80.43;94663.31;5010572;28;20456;-69
2024/01/01 06:03:20;;;;;;;22.33;12.52;;;;;;;0.62;80.73;94683.50;5011785;28;20037;-69
2024/01/01 06:05:45;;;;;;;25.75;13.60;;;;;;;0.59;80.55;94679.34;5010614;28;20040;-69
2024/01/01 06:08:11;;;;;;;24.42;13.73;;;;;;;0.59;80.93;94679.34;4994151;28;20034;-69
2024/01/01 06:10:37;;;;;;;25.30;15.07;;;;;;;0.61;81.45;94689.47;4990707;28;20046;-69
2024/01/01 06:13:03;;;;;;;21.25;12.68;;;;;;;0.62;81.34;94691.97;4994422;28;20046;-69
2024/01/01 06:15:28;;;;;;;16.27;10.65;;;;;;;0.51;81.15;94685.72;5011198;28;20492;-69
2024/01/01 06:17:53;;;;;;;18.92;11.82;;;;;;;0.68;80.04;94696.00;5002695;28;20026;-69
2024/01/01 06:20:19;;;;;;;19.63;11.73;;;;;;;0.67;79.64;94679.00;5005938;28;20030;-69
2024/01/01 06:22:46;;;;;;;23.02;13.60;;;;;;;0.60;79.86;94681.00;4984131;28;20042;-69
2024/01/01 06:25:11;;;;;;;24.63;13.88;;;;;;;0.28;81.25;94690.13;4969967;28;20029;-69
2024/01/01 06:27:37;;;;;;;18.23;11.52;;;;;;;0.44;80.92;94665.50;4999698;28;20046;-69
2024/01/01 06:30:04;;;;;;;20.17;12.23;;;;;;;0.36;81.19;94679.53;5000354;28;20022;-69
2024/01/01 06:32:29;;;;;;;19.13;11.88;;;;;;;0.34;82.02;94664.31;5001019;28;20038;-69
2024/01/01 06:34:55;;;;;;;28.25;16.25;;;;;;;0.33;81.54;94677.97;4985393;28;20503;-69
2024/01/01 06:37:20;;;;;;;29.08;14.70;;;;;;;0.39;82.02;94672.59;4995960;28;20167;-69
2024/01/01 06:39:46;;;;;;;42.97;19.90;;;;;;;0.31;81.83;94669.56;4967578;28;20022;-69
2024/01/01 06:42:11;;;;;;;41.80;20.02;;;;;;;0.14;82.63;94664.34;4967492;28;20049;-69
2024/01/01 06:44:36;;;;;;;32.30;16.77;;;;;;;0.26;81.76;94671.47;4968028;28;20204;-69
2024/01/01 06:47:03;;;;;;;35.17;18.30;;;;;;;0.39;82.13;94681.97;4983222;28;20088;-69
2024/01/01 06:49:28;;;;;;;32.95;17.73;;;;;;;0.33;82.52;94677.13;4987719;28;20096;-69
2024/01/01 06:51:54;;;;;;;40.28;23.63;;;;;;;0.30;83.10;94682.38;5003172;28;20034;-69
2024/01/01 06:54:19;;;;;;;40.55;22.52;;;;;;;0.29;83.81;94670.50;4971629;28;20030;-69
2024/01/01 06:56:45;;;;;;;37.65;21.73;;;;;;;0.60;83.25;94652.03;4986388;28;20038;-69
2024/01/01 06:59:11;;;;;;;33.40;19.35;;;;;;;0.68;82.68;94657.63;5001105;28;20033;-69
2024/01/01 07:01:36;;;;;;;26.67;16.15;;;;;;;0.65;83.71;94657.78;4972782;28;20112;-69
2024/01/01 07:04:02;;;;;;;18.67;12.07;;;;;;;0.73;82.89;94650.56;4989556;28;20030;-69
2024/01/01 07:06:27;;;;;;;21.25;12.88;;;;;;;0.60;83.58;94652.88;4988600;28;20420;-69
2024/01/01 07:08:53;;;;;;;21.83;12.05;;;;;;;0.77;83.24;94659.75;5007555;28;20026;-69
2024/01/01 07:11:19;;;;;;;18.25;11.27;;;;;;;1.04;82.76;94667.03;4988722;28;20522;-69
2024/01/01 07:13:44;;;;;;;26.58;13.95;;;;;;;1.01;83.26;94667.19;4989694;28;20060;-69
2024/01/01 07:16:09;;;;;;;56.10;30.95;;;;;;;1.18;83.47;94656.13;5001811;28;20555;-69
2024/01/01 07:18:35;;;;;;;50.90;26.90;;;;;;;1.38;83.11;94655.16;5004167;28;20049;-69
2024/01/01 07:21:00;;;;;;;31.00;17.00;;;;;;;1.49;82.83;94663.13;5006725;28;20370;-69
2024/01/01 07:23:26;;;;;;;19.77;11.75;;;;;;;1.39;82.72;94649.94;5002693;28;20046;-69
2024/01/01 07:25:51;;;;;;;20.65;12.02;;;;;;;1.01;83.83;94659.50;5003659;28;20021;-69
2024/01/01 07:28:17;;;;;;;136.68;49.05;;;;;;;1.19;84.45;94652.66;5007073;28;20432;-69
2024/01/01 07:30:42;;;;;;;90.38;40.50;;;;;;;1.35;83.55;94661.25;5008375;28;20026;-69
2024/01/01 07:33:08;;;;;;;98.45;45.90;;;;;;;1.25;84.14;94658.28;5007980;28;20528;-70
2024/01/01 07:35:33;;;;;;;95.88;45.60;;;;;;;1.28;84.97;94668.41;5010695;28;20076;-69
2024/01/01 07:37:59;;;;;;;78.45;36.10;;;;;;;1.58;83.92;94659.28;5006783;28;20421;-69
2024/01/01 07:40:24;;;;;;;80.47;39.92;;;;;;;1.87;83.19;94671.44;4993351;28;20030;-69
2024/01/01 07:42:50;;;;;;;214.30;84.20;;;;;;;1.73;83.38;94674.72;5004044;28;20034;-69
2024/01/01 07:45:15;;;;;;;193.70;83.55;;;;;;;1.54;83.49;94679.91;5010283;28;20029;-69
2024/01/01 07:47:41;;;;;;;121.75;60.60;;;;;;;1.55;84.13;94683.28;5009768;28;20053;-69
2024/01/01 07:50:07;;;;;;;100.97;51.47;;;;;;;1.61;83.92;94654.81;5009483;28;20042;-69
2024/01/01 07:52:32;;;;;;;61.28;36.50;;;;;;;1.97;81.82;94664.09;5009083;28;20040;-69
2024/01/01 07:54:58;;;;;;;61.90;33.80;;;;;;;1.88;82.75;94675.66;5009970;28;20408;-69
2024/01/01 07:57:24;;;;;;;55.05;30.83;;;;;;;2.21;82.20;94680.78;5005510;28;20236;-69
2024/01/01 07:59:51;;;;;;;63.30;34.60;;;;;;;1.98;83.01;94694.78;5009269;28;20065;-69
2024/01/01 08:02:17;;;;;;;79.65;39.60;;;;;;;2.04;83.37;94692.81;5003970;28;20061;-69
2024/01/01 08:04:43;;;;;;;80.55;43.42;;;;;;;2.06;83.61;94707.19;4990033;28;20472;-69
2024/01/01 08:07:08;;;;;;;88.35;43.40;;;;;;;2.16;83.27;94708.38;5009970;28;20034;-69
2024/01/01 08:09:33;;;;;;;68.53;36.05;;;;;;;2.39;82.46;94680.72;5005845;28;20033;-69
2024/01/01 08:11:59;;;;;;;73.43;39.15;;;;;;;2.30;82.78;94694.03;5008750;28;20026;-69
2024/01/01 08:14:24;;;;;;;79.43;44.15;;;;;;;2.58;82.26;94685.69;4985525;28;20045;-69
2024/01/01 08:16:50;;;;;;;74.20;38.67;;;;;;;2.50;81.68;94675.84;5007743;28;20401;-69
2024/01/01 08:19:15;;;;;;;69.53;36.00;;;;;;;2.73;81.56;94676.34;5003325;28;20031;-69
2024/01/01 08:21:40;;;;;;;77.55;40.28;;;;;;;2.85;81.11;94679.06;4988643;28;20034;-69
2024/01/01 08:24:06;;;;;;;118.13;52.00;;;;;;;2.68;81.98;94664.59;4989708;28;20125;-70
2024/01/01 08:26:32;;;;;;;83.63;44.20;;;;;;;3.10;81.05;94670.84;5007968;28;20034;-70
2024/01/01 08:28:57;;;;;;;72.57;42.13;;;;;;;3.21;80.77;94666.84;5010053;28;20030;-70
2024/01/01 08:31:22;;;;;;;81.60;43.45;;;;;;;3.29;79.97;94652.66;5009014;28;20420;-70
2024/01/01 08:33:48;;;;;;;73.90;40.95;;;;;;;3.38;79.96;94661.59;5005968;28;20033;-70
2024/01/01 08:36:14;;;;;;;78.40;43.00;;;;;;;3.35;80.11;94674.59;5007606;28;20405;-70
2024/01/01 08:38:39;;;;;;;88.45;47.25;;;;;;;3.41;80.26;94674.25;5007865;28;20084;-67
2024/01/01 08:41:05;;;;;;;70.32;39.13;;;;;;;3.00;80.80;94674.81;5007586;28;20038;-69
2024/01/01 08:43:30;;;;;;;74.75;42.72;;;;;;;3.27;79.69;94677.59;5007428;28;20052;-70
2024/01/01 08:45:58;;;;;;;75.63;42.50;;;;;;;3.37;78.89;94683.03;4992545;28;20099;-70
2024/01/01 08:48:24;;;;;;;62.47;36.92;;;;;;;3.19;79.38;94653.28;5008731;28;20034;-70
2024/01/01 08:50:49;;;;;;;63.58;37.10;;;;;;;3.23;79.49;94671.00;5012740;28;20025;-71
2024/01/01 08:53:14;;;;;;;69.43;40.33;;;;;;;2.96;81.17;94688.75;5010899;28;20042;-69
2024/01/01 08:55:40;;;;;;;65.97;37.60;;;;;;;3.26;79.97;94687.94;5011506;28;20093;-70
2024/01/01 08:58:06;;;;;;;64.55;35.78;;;;;;;3.31;80.01;94678.25;5004996;28;20034;-67
2024/01/01 09:00:32;;;;;;;64.30;34.85;;;;;;;3.43;79.81;94671.59;5004320;28;20034;-68
2024/01/01 09:02:57;;;;;;;64.18;34.50;;;;;;;3.23;80.33;94670.16;5005913;28;20038;-68
2024/01/01 09:05:23;;;;;;;66.53;36.10;;;;;;;3.11;81.32;94661.41;5006932;28;20087;-68
2024/01/01 09:07:48;;;;;;;70.35;38.47;;;;;;;3.38;81.09;94669.28;5001194;28;20507;-69
2024/01/01 09:10:15;;;;;;;75.38;41.00;;;;;;;3.48;80.79;94674.72;5009099;28;20244;-68
2024/01/01 09:12:41;;;;;;;73.85;40.30;;;;;;;3.54;80.68;94685.47;5002813;28;20037;-68
2024/01/01 09:15:07;;;;;;;176.57;70.65;;;;;;;3.39;80.79;94665.78;5006891;28;20115;-69
2024/01/01 09:17:32;;;;;;;78.45;39.60;;;;;;;3.68;79.73;94686.44;4986089;28;20044;-68
2024/01/01 09:19:58;;;;;;;68.45;37.90;;;;;;;4.07;78.06;94672.13;5000531;28;20034;-68
2024/01/01 09:22:23;;;;;;;61.20;34.83;;;;;;;4.05;77.21;94668.84;5000038;28;20440;-69
2024/01/01 09:24:48;;;;;;;63.90;37.30;;;;;;;3.95;77.92;94666.81;5006641;28;20030;-69
2024/01/01 09:27:14;;;;;;;63.38;35.85;;;;;;;4.06;78.64;94649.94;5007002;28;20038;-69
2024/01/01 09:29:39;;;;;;;60.13;33.30;;;;;;;3.95;78.86;94638.53;5007355;28;20034;-69
2024/01/01 09:32:05;;;;;;;68.00;36.80;;;;;;;4.03;79.04;94651.75;5005615;28;20034;-69
2024/01/01 09:34:30;;;;;;;60.33;32.03;;;;;;;3.96;79.78;94649.66;5004037;28;20053;-69
2024/01/01 09:36:56;;;;;;;111.70;54.03;;;;;;;4.03;79.94;94632.94;5007114;28;20026;-69
2024/01/01 09:39:21;;;;;;;79.35;42.53;;;;;;;4.46;78.72;94645.78;5006999;28;20026;-69
2024/01/01 09:41:48;;;;;;;53.22;30.48;;;;;;;4.72;77.40;94618.44;5004552;28;20038;-69
2024/01/01 09:44:14;;;;;;;63.90;33.03;;;;;;;4.97;77.00;94591.94;4990714;28;20040;-69
2024/01/01 09:46:39;;;;;;;89.10;41.58;;;;;;;4.90;77.19;94581.22;5004513;28;20059;-69
2024/01/01 09:49:05;;;;;;;50.92;26.33;;;;;;;5.00;77.72;94580.63;4994500;28;20073;-70
2024/01/01 09:51:33;;;;;;;82.15;44.75;;;;;;;4.80;78.28;94579.34;4976262;28;20504;-69
2024/01/01 09:54:00;;;;;;;104.78;53.35;;;;;;;5.09;77.79;94590.31;5009409;28;20038;-69
2024/01/01 09:56:26;;;;;;;68.63;38.20;;;;;;;5.07;77.11;94587.03;5010477;28;20507;-69
2024/01/01 09:58:51;;;;;;;48.33;28.65;;;;;;;4.92;77.62;94594.00;5011638;28;20033;-69
2024/01/01 10:01:19;;;;;;;42.15;25.25;;;;;;;5.17;75.93;94598.38;5011397;28;20043;-69
2024/01/01 10:04:00;;;;;;;52.70;29.60;;;;;;;5.19;76.27;94608.59;5011070;28;20117;-69
2024/01/01 10:06:25;;;;;;;46.75;27.02;;;;;;;5.14;76.31;94608.88;5010206;28;20049;-70
2024/01/01 10:08:51;;;;;;;41.22;22.27;;;;;;;5.08;76.44;94606.72;5011400;28;20034;-69
2024/01/01 10:11:18;;;;;;;43.05;25.38;;;;;;;5.45;75.07;94591.44;5009663;28;20255;-69
2024/01/01 10:13:44;;;;;;;41.08;23.88;;;;;;;5.42;75.18;94591.63;5008455;28;20046;-69
2024/01/01 10:16:09;;;;;;;52.58;28.50;;;;;;;5.59;75.31;94588.75;5010050;28;20030;-70
2024/01/01 10:18:35;;;;;;;40.08;21.75;;;;;;;5.52;74.80;94585.78;4972281;28;20096;-69
2024/01/01 10:21:11;;;;;;;41.08;24.80;;;;;;;5.61;74.54;94574.03;4990458;28;20440;-70
2024/01/01 10:23:37;;;;;;;41.20;22.52;;;;;;;5.52;74.42;94564.34;4996092;28;20053;-69
2024/01/01 10:26:06;;;;;;;44.72;25.20;;;;;;;5.70;74.75;94559.69;5010165;28;20033;-70
2024/01/01 10:28:32;;;;;;;32.50;19.48;;;;;;;5.73;73.84;94554.31;5010027;28;20037;-69
2024/01/01 10:30:59;;;;;;;37.70;20.40;;;;;;;5.75;74.16;94550.72;5010506;28;20034;-70
2024/01/01 10:33:26;;;;;;;40.97;24.33;;;;;;;5.92;73.40;94556.47;5010047;28;20038;-70
2024/01/01 10:35:52;;;;;;;46.60;26.13;;;;;;;5.91;74.25;94549.69;4994086;28;20393;-70
2024/01/01 10:38:17;;;;;;;38.50;22.13;;;;;;;5.93;73.64;94540.06;5009390;28;20053;-70
2024/01/01 10:40:43;;;;;;;34.80;20.25;;;;;;;6.09;72.92;94548.44;4974500;28;20408;-70
2024/01/01 10:43:08;;;;;;;34.22;19.75;;;;;;;5.95;72.66;94539.06;4974125;28;20578;-69
2024/01/01 10:45:34;;;;;;;34.55;20.92;;;;;;;5.98;72.98;94550.91;4958061;28;20480;-70
2024/01/01 10:48:00;;;;;;;33.20;19.73;;;;;;;6.23;71.77;94545.72;4974055;28;20041;-69
2024/01/01 10:50:29;;;;;;;34.35;21.05;;;;;;;6.13;72.33;94551.59;4974215;28;20049;-70
2024/01/01 10:53:06;;;;;;;33.97;20.63;;;;;;;6.00;72.88;94541.34;4990265;28;20394;-69
2024/01/01 10:55:47;;;;;;;44.25;23.88;;;;;;;5.98;72.86;94544.00;5006671;28;20400;-70
2024/01/01 10:58:40;;;;;;;33.42;21.00;;;;;;;6.07;73.12;94531.41;5011028;28;20030;-69
2024/01/01 11:01:09;;;;;;;38.35;22.98;;;;;;;6.13;72.55;94526.66;5009448;28;20037;-69
2024/01/01 11:03:35;;;;;;;38.40;24.77;;;;;;;5.94;73.30;94532.28;4982191;28;20393;-70
2024/01/01 11:06:24;;;;;;;32.28;19.80;;;;;;;6.40;71.26;94544.53;4995679;28;20041;-69
2024/01/01 11:08:50;;;;;;;29.95;17.83;;;;;;;6.30;71.63;94540.16;4996474;28;20417;-70
2024/01/01 11:11:27;;;;;;;28.92;17.63;;;;;;;6.25;71.72;94525.78;4980487;28;20041;-70
2024/01/01 11:13:53;;;;;;;23.73;14.60;;;;;;;6.55;70.50;94519.41;4996371;28;20046;-69
2024/01/01 11:16:19;;;;;;;22.23;14.07;;;;;;;6.55;70.59;94506.50;4996624;28;20030;-70
2024/01/01 11:18:44;;;;;;;26.45;16.65;;;;;;;6.54;71.29;94511.75;4996557;28;20030;-69